KHCR

Heber City Municipal - Russ McDonald Field Airport

Heber, Utah, USA
KHCR 210103Z 2101/2124 25013G20KT P6SM -SHRA SCT040 BKN080 FM210200 22010KT P6SM VCSH SCT080 BKN120 FM210300 VRB03KT P6SM SCT100 SCT120 FM211700 24008KT P6SM VCSH SCT080 BKN100
Issued Valid From Valid To
Aug-21 @ 01:03 UTC
(17 hours ago)
Aug-21 @ 01:00 UTC
(17 hours ago)
Aug-22 @ 00:00 UTC
(in 6 hours)
Expired Click to View Aug-21 @ 01:00 to Aug-21 @ 02:00
KHCR 210103Z 2101/2124 25013G20KT P6SM -SHRA SCT040 BKN080
Wind Visibility Clouds Conditions
250° at 13 knots
 Gusting to 20 knots
Greater than 6 miles
  • Scattered at 4,000' AGL
  • Broken at 8,000' AGL
  • Light Rain
Expired Click to View Aug-21 @ 02:00 to Aug-21 @ 03:00
FM210200 22010KT P6SM VCSH SCT080 BKN120
Wind Visibility Clouds
220° at 10 knots Greater than 6 miles
  • Scattered at 8,000' AGL
  • Broken at 12,000' AGL
Expired Click to View Aug-21 @ 03:00 to Aug-21 @ 17:00
FM210300 VRB03KT P6SM SCT100 SCT120
Wind Visibility Clouds
Variable at 3 knots Greater than 6 miles
  • Scattered at 10,000' AGL
  • Scattered at 12,000' AGL
From Aug-21 @ 17:00 to Aug-22 @ 00:00
FM211700 24008KT P6SM VCSH SCT080 BKN100
Wind Visibility Clouds
240° at 8 knots Greater than 6 miles
  • Scattered at 8,000' AGL
  • Broken at 10,000' AGL
KHCR 210103Z 2101/2124 25013G20KT P6SM -SHRA SCT040 BKN080 FM210200 22010KT P6SM VCSH SCT080 BKN120 FM210300 VRB03KT P6SM SCT100 SCT120 FM211700 24008KT P6SM VCSH SCT080 BKN100
Issued Aug-21 @ 01:03 UTC
(17 hours ago)
Valid From Aug-21 @ 01:00 UTC
(17 hours ago)
Valid To Aug-22 @ 00:00 UTC
(in 6 hours)
Aug-21 @ 01:00 - Aug-21 @ 02:00
Wind Visibility
250° at 13 knots
 Gusting to 20 knots
Greater than 6 miles
Clouds
  • Scattered at 4,000' AGL
  • Broken at 8,000' AGL
Conditions
  • Light Rain
Aug-21 @ 02:00 - Aug-21 @ 03:00
Wind Visibility
220° at 10 knots Greater than 6 miles
Clouds
  • Scattered at 8,000' AGL
  • Broken at 12,000' AGL
Aug-21 @ 03:00 - Aug-21 @ 17:00
Wind Visibility
Variable at 3 knots Greater than 6 miles
Clouds
  • Scattered at 10,000' AGL
  • Scattered at 12,000' AGL
From Aug-21 @ 17:00 - Aug-22 @ 00:00
Wind Visibility
240° at 8 knots Greater than 6 miles
Clouds
  • Scattered at 8,000' AGL
  • Broken at 10,000' AGL